createdAt,value
2022-11-15T00:00:39.349Z,6.30
2022-11-15T00:03:29.407Z,5.60
2022-11-15T00:06:16.491Z,6.50
2022-11-15T00:09:04.785Z,5.80
2022-11-15T00:11:53.410Z,6.10
2022-11-15T00:14:41.265Z,6.00
2022-11-15T00:17:28.165Z,5.23
2022-11-15T00:20:16.011Z,6.60
2022-11-15T00:23:04.750Z,5.60
2022-11-15T00:25:58.657Z,6.47
2022-11-15T00:28:47.330Z,5.53
2022-11-15T00:31:36.686Z,6.40
2022-11-15T00:34:25.434Z,5.30
2022-11-15T00:37:14.598Z,5.93
2022-11-15T00:43:05.525Z,5.80
2022-11-15T00:45:54.482Z,5.90
2022-11-15T00:48:42.418Z,6.20
2022-11-15T00:51:31.309Z,5.60
2022-11-15T00:54:18.926Z,5.43
2022-11-15T00:57:05.736Z,5.37
2022-11-15T00:59:53.418Z,6.07
2022-11-15T01:02:41.394Z,6.00
2022-11-15T01:05:32.083Z,6.13
2022-11-15T01:08:20.914Z,5.57
2022-11-15T01:11:11.343Z,5.10
2022-11-15T01:13:58.114Z,5.83
2022-11-15T01:16:45.885Z,5.73
2022-11-15T01:19:34.162Z,6.10
2022-11-15T01:22:21.973Z,4.90
2022-11-15T01:25:08.910Z,5.67
2022-11-15T01:27:58.435Z,5.77
2022-11-15T01:30:45.301Z,4.90
2022-11-15T01:33:35.216Z,6.00
2022-11-15T01:36:24.564Z,5.60
2022-11-15T01:39:12.368Z,5.90
2022-11-15T01:41:59.161Z,5.30
2022-11-15T01:45:16.294Z,6.07
2022-11-15T01:48:04.230Z,5.97
2022-11-15T01:50:54.429Z,5.00
2022-11-15T01:53:46.059Z,5.80
2022-11-15T01:56:40.568Z,5.53
2022-11-15T01:59:27.626Z,5.40
2022-11-15T02:02:15.473Z,6.20
2022-11-15T02:05:05.693Z,5.40
2022-11-15T02:07:53.895Z,6.33
2022-11-15T02:10:42.378Z,5.47
2022-11-15T02:13:30.527Z,5.30
2022-11-15T02:16:28.063Z,5.10
2022-11-15T02:19:36.330Z,6.20
2022-11-15T02:22:37.432Z,6.10
2022-11-15T02:25:43.166Z,5.50
2022-11-15T02:28:46.209Z,5.20
2022-11-15T02:31:45.953Z,4.60
2022-11-15T02:34:42.641Z,5.23
2022-11-15T02:37:37.363Z,5.60
2022-11-15T02:40:35.879Z,5.80
2022-11-15T02:43:48.085Z,6.20
2022-11-15T02:46:58.051Z,6.30
2022-11-15T02:49:49.101Z,5.67
2022-11-15T02:52:35.524Z,5.57
2022-11-15T02:55:36.749Z,5.80
2022-11-15T02:58:54.864Z,6.50
2022-11-15T03:02:03.213Z,6.10
2022-11-15T03:04:57.202Z,6.20
2022-11-15T03:07:58.090Z,6.17
2022-11-15T03:10:55.813Z,5.80
2022-11-15T03:13:51.414Z,5.33
2022-11-15T03:16:43.610Z,5.73
2022-11-15T03:19:40.114Z,5.30
2022-11-15T03:22:29.913Z,5.47
2022-11-15T03:25:21.838Z,6.40
2022-11-15T03:28:10.642Z,6.20
2022-11-15T03:31:00.463Z,4.70
2022-11-15T03:33:54.093Z,5.50
2022-11-15T03:36:46.226Z,6.57
2022-11-15T03:39:34.388Z,5.57
2022-11-15T03:42:31.318Z,5.10
2022-11-15T03:45:24.758Z,5.87
2022-11-15T03:48:16.369Z,5.40
2022-11-15T03:51:05.205Z,5.63
2022-11-15T03:53:53.753Z,5.57
2022-11-15T03:56:41.603Z,4.80
2022-11-15T03:59:28.930Z,4.80
2022-11-15T04:02:16.003Z,4.70
2022-11-15T04:05:08.740Z,4.67
2022-11-15T04:07:55.870Z,5.00
2022-11-15T04:10:44.374Z,4.93
2022-11-15T04:13:31.626Z,5.03
2022-11-15T04:16:18.935Z,4.80
2022-11-15T04:19:26.545Z,4.57
2022-11-15T04:22:32.286Z,5.33
2022-11-15T04:25:22.980Z,4.77
2022-11-15T04:28:14.565Z,5.53
2022-11-15T04:31:01.391Z,5.30
2022-11-15T04:33:49.015Z,5.60
2022-11-15T04:36:53.310Z,4.60
2022-11-15T04:39:41.352Z,4.67
2022-11-15T04:42:28.277Z,5.37
2022-11-15T04:45:16.558Z,5.03
2022-11-15T04:48:05.749Z,5.07
2022-11-15T04:50:52.785Z,5.50
2022-11-15T04:53:41.956Z,5.00
2022-11-15T04:56:28.675Z,5.47
2022-11-15T04:59:16.990Z,5.73
2022-11-15T05:02:07.865Z,4.63
2022-11-15T05:04:54.154Z,4.83
2022-11-15T05:07:41.100Z,5.40
2022-11-15T05:10:29.835Z,4.97
2022-11-15T05:13:17.342Z,5.00
2022-11-15T05:16:04.124Z,4.93
2022-11-15T05:18:57.445Z,4.63
2022-11-15T05:21:46.026Z,5.07
2022-11-15T05:24:34.165Z,5.50
2022-11-15T05:27:23.476Z,5.00
2022-11-15T05:30:10.954Z,4.87
2022-11-15T05:32:58.512Z,5.20
2022-11-15T05:35:54.865Z,4.70
2022-11-15T05:38:42.849Z,4.87
2022-11-15T05:41:41.247Z,5.50
2022-11-15T05:44:28.820Z,5.20
2022-11-15T05:47:19.275Z,5.10
2022-11-15T05:50:07.686Z,4.70
2022-11-15T05:52:59.730Z,5.00
2022-11-15T05:55:51.678Z,4.00
2022-11-15T05:58:39.497Z,4.63
2022-11-15T06:01:28.982Z,4.53
2022-11-15T06:04:17.472Z,4.17
2022-11-15T06:07:04.638Z,4.80
2022-11-15T06:09:57.283Z,4.13
2022-11-15T06:12:44.524Z,4.67
2022-11-15T06:15:31.500Z,4.40
2022-11-15T06:18:21.259Z,4.60
2022-11-15T06:21:08.225Z,5.40
2022-11-15T06:23:56.279Z,3.60
2022-11-15T06:26:52.982Z,4.23
2022-11-15T06:29:40.531Z,3.37
2022-11-15T06:32:27.870Z,3.87
2022-11-15T06:35:17.311Z,4.00
2022-11-15T06:38:05.961Z,3.43
2022-11-15T06:40:52.479Z,3.60
2022-11-15T06:43:42.297Z,2.73
2022-11-15T06:46:31.337Z,3.00
2022-11-15T06:49:20.073Z,2.80
2022-11-15T06:52:06.947Z,2.67
2022-11-15T06:54:54.505Z,2.60
2022-11-15T06:57:49.107Z,2.40
2022-11-15T07:00:38.159Z,2.60
2022-11-15T07:03:24.916Z,1.90
2022-11-15T07:06:12.380Z,2.33
2022-11-15T07:09:05.888Z,2.50
2022-11-15T07:11:53.617Z,2.03
2022-11-15T07:14:40.458Z,2.00
2022-11-15T07:17:31.130Z,2.50
2022-11-15T07:20:26.090Z,1.60
2022-11-15T07:23:14.682Z,2.17
2022-11-15T07:26:01.832Z,2.63
2022-11-15T07:28:50.064Z,2.37
2022-11-15T07:31:36.796Z,2.00
2022-11-15T07:34:25.716Z,2.83
2022-11-15T07:37:13.858Z,2.30
2022-11-15T07:40:00.816Z,2.07
2022-11-15T07:42:59.307Z,1.70
2022-11-15T07:45:47.738Z,1.97
2022-11-15T07:48:43.886Z,2.00
2022-11-15T07:51:33.088Z,1.97
2022-11-15T07:54:20.180Z,2.23
2022-11-15T07:57:10.914Z,2.00
2022-11-15T07:59:58.663Z,2.10
2022-11-15T08:02:45.457Z,1.83
2022-11-15T08:05:34.039Z,1.97
2022-11-15T08:08:22.575Z,2.17
2022-11-15T08:11:09.350Z,1.57
2022-11-15T08:14:03.584Z,1.80
2022-11-15T08:16:53.555Z,1.50
2022-11-15T08:19:41.751Z,2.23
2022-11-15T08:22:29.299Z,2.03
2022-11-15T08:25:18.342Z,1.90
2022-11-15T08:28:07.263Z,2.00
2022-11-15T08:30:55.435Z,1.80
2022-11-15T08:33:42.255Z,1.20
2022-11-15T08:36:34.785Z,1.67
2022-11-15T08:39:29.170Z,1.80
2022-11-15T08:42:20.001Z,2.10
2022-11-15T08:45:08.186Z,1.70
2022-11-15T08:47:57.712Z,1.40
2022-11-15T08:50:45.337Z,1.67
2022-11-15T08:53:36.668Z,2.00
2022-11-15T08:56:26.228Z,1.30
2022-11-15T08:59:15.260Z,1.63
2022-11-15T09:02:02.333Z,1.30
2022-11-15T09:04:51.761Z,1.20
2022-11-15T09:07:41.008Z,1.40
2022-11-15T09:10:28.336Z,1.33
2022-11-15T09:13:14.958Z,1.50
2022-11-15T09:16:06.682Z,1.70
2022-11-15T09:18:54.134Z,1.50
2022-11-15T09:21:42.312Z,1.70
2022-11-15T09:24:28.837Z,1.50
2022-11-15T09:27:16.144Z,1.30
2022-11-15T09:30:02.976Z,1.63
2022-11-15T09:32:51.642Z,1.53
2022-11-15T09:35:40.784Z,1.57
2022-11-15T09:38:29.280Z,1.50
2022-11-15T09:41:48.811Z,1.10
2022-11-15T09:44:45.296Z,1.60
2022-11-15T09:47:52.049Z,1.33
2022-11-15T09:50:42.848Z,1.20
2022-11-15T09:53:15.354Z,0.90
2022-11-15T09:55:55.720Z,1.30
2022-11-15T09:58:29.082Z,1.47
2022-11-15T10:01:02.025Z,1.10
2022-11-15T10:03:35.397Z,1.17
2022-11-15T10:06:15.879Z,0.90
2022-11-15T10:08:53.720Z,1.07
2022-11-15T10:11:40.343Z,1.00
2022-11-15T10:14:16.333Z,1.40
2022-11-15T10:17:07.481Z,1.17
2022-11-15T10:19:44.585Z,1.00
2022-11-15T10:22:31.482Z,1.43
2022-11-15T10:25:13.536Z,1.60
2022-11-15T10:27:43.883Z,1.30
2022-11-15T10:30:15.225Z,1.00
2022-11-15T10:32:45.724Z,1.30
2022-11-15T10:35:24.512Z,0.90
2022-11-15T10:38:02.626Z,1.30
2022-11-15T10:40:30.657Z,1.07
2022-11-15T10:43:10.258Z,1.20
2022-11-15T10:45:39.195Z,1.20
2022-11-15T10:48:27.388Z,1.30
2022-11-15T10:50:59.225Z,1.10
2022-11-15T10:53:34.451Z,1.20
2022-11-15T10:56:07.343Z,1.23
2022-11-15T10:58:39.743Z,1.10
2022-11-15T11:01:25.581Z,1.03
2022-11-15T11:04:03.923Z,0.97
2022-11-15T11:06:34.871Z,1.00
2022-11-15T11:09:07.354Z,0.87
2022-11-15T11:11:47.691Z,0.87
2022-11-15T11:17:14.348Z,1.30
2022-11-15T11:20:02.561Z,1.63
2022-11-15T11:22:41.081Z,1.57
2022-11-15T11:25:21.903Z,1.40
2022-11-15T11:28:07.692Z,1.20
2022-11-15T11:30:49.753Z,1.20
2022-11-15T11:33:22.673Z,1.00
2022-11-15T11:36:04.189Z,1.23
2022-11-15T11:38:54.952Z,1.20
2022-11-15T11:41:40.687Z,1.00
2022-11-15T11:44:26.508Z,0.90
2022-11-15T11:46:58.546Z,1.03
2022-11-15T11:49:33.268Z,1.50
2022-11-15T11:52:09.777Z,1.23
2022-11-15T11:54:45.567Z,1.13
2022-11-15T11:57:30.556Z,0.97
2022-11-15T12:00:05.468Z,1.30
2022-11-15T12:02:48.149Z,1.00
2022-11-15T12:05:32.838Z,0.70
2022-11-15T12:08:07.221Z,1.40
2022-11-15T12:10:39.560Z,1.60
2022-11-15T12:13:13.768Z,3.27
2022-11-15T12:15:47.531Z,3.80
2022-11-15T12:18:18.778Z,3.50
2022-11-15T12:20:56.177Z,1.30
2022-11-15T12:23:30.415Z,1.00
2022-11-15T12:26:04.413Z,1.20
2022-11-15T12:28:58.395Z,1.77
2022-11-15T12:31:37.375Z,0.90
2022-11-15T12:34:16.211Z,0.90
2022-11-15T12:36:46.086Z,0.93
2022-11-15T12:39:14.965Z,1.00
2022-11-15T12:41:44.692Z,0.90
2022-11-15T12:44:37.616Z,1.00
2022-11-15T12:47:24.603Z,1.00
2022-11-15T12:50:00.598Z,1.20
2022-11-15T12:52:30.396Z,1.10
2022-11-15T12:55:31.900Z,1.00
2022-11-15T12:58:31.555Z,1.00
2022-11-15T13:01:03.247Z,0.70
2022-11-15T13:03:38.983Z,1.10
2022-11-15T13:06:39.679Z,1.00
2022-11-15T13:09:45.509Z,1.30
2022-11-15T13:12:52.200Z,1.00
2022-11-15T13:15:42.428Z,1.30
2022-11-15T13:18:48.043Z,0.83
2022-11-15T13:21:41.506Z,1.20
2022-11-15T13:24:16.067Z,1.03
2022-11-15T13:27:13.472Z,1.03
2022-11-15T13:29:45.436Z,0.90
2022-11-15T13:32:17.778Z,1.30
2022-11-15T13:34:52.656Z,0.90
2022-11-15T13:37:34.715Z,1.80
2022-11-15T13:40:23.217Z,1.23
2022-11-15T13:42:51.965Z,1.30
2022-11-15T13:45:22.170Z,1.77
2022-11-15T13:47:55.797Z,1.03
2022-11-15T13:50:27.784Z,1.30
2022-11-15T13:53:02.797Z,1.00
2022-11-15T13:55:37.287Z,1.17
2022-11-15T13:58:07.673Z,2.40
2022-11-15T14:00:41.443Z,1.63
2022-11-15T14:03:18.866Z,2.27
2022-11-15T14:05:49.060Z,1.47
2022-11-15T14:08:25.956Z,1.03
2022-11-15T14:11:16.514Z,1.20
2022-11-15T14:14:01.818Z,1.50
2022-11-15T14:16:37.432Z,1.33
2022-11-15T14:19:06.898Z,1.67
2022-11-15T14:21:35.431Z,1.70
2022-11-15T14:24:22.829Z,1.27
2022-11-15T14:26:51.191Z,1.80
2022-11-15T14:29:37.380Z,3.67
2022-11-15T14:32:16.213Z,2.13
2022-11-15T14:34:45.638Z,1.73
2022-11-15T14:40:11.513Z,2.07
2022-11-15T14:42:39.545Z,2.17
2022-11-15T14:45:16.023Z,1.53
2022-11-15T14:47:44.436Z,1.67
2022-11-15T14:50:17.951Z,1.60
2022-11-15T14:52:50.218Z,2.03
2022-11-15T14:55:25.132Z,1.10
2022-11-15T14:57:53.663Z,1.37
2022-11-15T15:00:22.221Z,1.57
2022-11-15T15:02:54.681Z,1.73
2022-11-15T15:05:25.176Z,1.20
2022-11-15T15:07:54.640Z,1.40
2022-11-15T15:10:39.492Z,1.40
2022-11-15T15:13:20.115Z,1.60
2022-11-15T15:15:48.996Z,1.30
2022-11-15T15:18:17.338Z,1.77
2022-11-15T15:20:47.150Z,1.67
2022-11-15T15:23:18.709Z,1.50
2022-11-15T15:25:50.870Z,1.23
2022-11-15T15:28:18.879Z,1.53
2022-11-15T15:30:49.634Z,1.47
2022-11-15T15:33:18.815Z,1.70
2022-11-15T15:35:52.851Z,1.60
2022-11-15T15:38:22.506Z,1.30
2022-11-15T15:40:52.417Z,1.63
2022-11-15T15:43:20.760Z,1.90
2022-11-15T15:45:49.019Z,1.73
2022-11-15T15:48:18.754Z,2.10
2022-11-15T15:50:55.668Z,1.60
2022-11-15T15:53:24.143Z,1.73
2022-11-15T15:55:53.539Z,2.07
2022-11-15T15:58:22.030Z,1.90
2022-11-15T16:00:50.639Z,1.53
2022-11-15T16:03:18.953Z,1.80
2022-11-15T16:05:47.184Z,1.33
2022-11-15T16:08:25.036Z,1.97
2022-11-15T16:10:56.913Z,1.60
2022-11-15T16:13:25.678Z,1.30
2022-11-15T16:15:56.188Z,1.40
2022-11-15T16:18:24.373Z,1.50
2022-11-15T16:20:57.740Z,1.90
2022-11-15T16:23:26.376Z,1.30
2022-11-15T16:25:57.694Z,1.20
2022-11-15T16:28:27.291Z,1.67
2022-11-15T16:31:05.445Z,1.73
2022-11-15T16:33:34.271Z,1.70
2022-11-15T16:36:02.938Z,1.50
2022-11-15T16:38:31.485Z,1.93
2022-11-15T16:41:01.769Z,1.73
2022-11-15T16:43:30.386Z,1.73
2022-11-15T16:46:00.737Z,1.67
2022-11-15T16:48:30.175Z,1.77
2022-11-15T16:51:00.270Z,1.53
2022-11-15T16:53:28.934Z,1.50
2022-11-15T16:55:57.537Z,1.87
2022-11-15T16:58:27.004Z,1.80
2022-11-15T17:00:56.696Z,1.40
2022-11-15T17:03:26.937Z,1.20
2022-11-15T17:06:00.881Z,1.60
2022-11-15T17:08:29.283Z,1.70
2022-11-15T17:10:57.713Z,1.70
2022-11-15T17:13:31.667Z,1.70
2022-11-15T17:16:06.580Z,1.57
2022-11-15T17:18:36.465Z,1.17
2022-11-15T17:21:09.254Z,1.73
2022-11-15T17:23:37.485Z,1.60
2022-11-15T17:26:28.184Z,2.17
2022-11-15T17:28:57.709Z,1.50
2022-11-15T17:31:30.224Z,1.40
2022-11-15T17:33:58.290Z,1.77
2022-11-15T17:36:26.263Z,1.50
2022-11-15T17:38:59.250Z,1.60
2022-11-15T17:41:28.611Z,1.87
2022-11-15T17:44:00.415Z,1.83
2022-11-15T17:46:30.655Z,3.47
2022-11-15T17:49:01.998Z,1.60
2022-11-15T17:51:30.709Z,2.10
2022-11-15T17:53:58.657Z,1.60
2022-11-15T17:56:29.576Z,1.70
2022-11-15T17:59:01.289Z,1.40
2022-11-15T18:01:31.421Z,1.70
2022-11-15T18:06:44.165Z,1.77
2022-11-15T18:09:13.130Z,1.57
2022-11-15T18:11:43.329Z,1.77
2022-11-15T18:14:17.041Z,1.83
2022-11-15T18:16:45.689Z,2.20
2022-11-15T18:19:16.110Z,1.70
2022-11-15T18:22:01.660Z,1.43
2022-11-15T18:24:31.734Z,1.80
2022-11-15T18:27:03.843Z,2.00
2022-11-15T18:29:34.503Z,1.47
2022-11-15T18:32:06.664Z,1.33
2022-11-15T18:34:42.559Z,1.87
2022-11-15T18:37:14.300Z,1.83
2022-11-15T18:39:48.546Z,1.63
2022-11-15T18:42:22.725Z,1.93
2022-11-15T18:44:54.433Z,1.53
2022-11-15T18:47:22.436Z,1.90
2022-11-15T18:49:50.964Z,1.80
2022-11-15T18:52:19.118Z,1.80
2022-11-15T18:54:48.542Z,2.27
2022-11-15T18:57:17.944Z,2.87
2022-11-15T18:59:48.246Z,1.70
2022-11-15T19:02:18.424Z,1.93
2022-11-15T19:04:49.125Z,2.23
2022-11-15T19:07:17.289Z,1.80
2022-11-15T19:09:48.035Z,1.50
2022-11-15T19:12:17.069Z,1.37
2022-11-15T19:14:47.456Z,1.57
2022-11-15T19:17:18.944Z,1.50
2022-11-15T19:19:46.950Z,1.77
2022-11-15T19:22:14.914Z,1.70
2022-11-15T19:24:43.492Z,1.60
2022-11-15T19:27:11.455Z,1.30
2022-11-15T19:29:41.050Z,1.83
2022-11-15T19:32:11.359Z,1.70
2022-11-15T19:34:42.005Z,1.60
2022-11-15T19:37:12.390Z,1.30
2022-11-15T19:39:41.479Z,1.57
2022-11-15T19:42:12.426Z,1.40
2022-11-15T19:44:41.982Z,1.80
2022-11-15T19:47:12.212Z,1.70
2022-11-15T19:49:46.020Z,1.90
2022-11-15T19:52:14.229Z,1.83
2022-11-15T19:54:42.212Z,1.33
2022-11-15T19:57:11.357Z,1.67
2022-11-15T19:59:39.380Z,1.77
2022-11-15T20:02:15.349Z,2.10
2022-11-15T20:04:47.821Z,2.30
2022-11-15T20:07:15.901Z,1.60
2022-11-15T20:09:44.526Z,2.03
2022-11-15T20:12:12.743Z,2.03
2022-11-15T20:14:40.742Z,2.43
2022-11-15T20:17:11.237Z,2.13
2022-11-15T20:19:42.055Z,2.00
2022-11-15T20:22:11.586Z,2.03
2022-11-15T20:24:42.567Z,2.47
2022-11-15T20:27:10.583Z,2.10
2022-11-15T20:29:44.816Z,1.90
2022-11-15T20:32:13.633Z,2.63
2022-11-15T20:34:42.020Z,1.93
2022-11-15T20:37:11.804Z,2.53
2022-11-15T20:39:42.267Z,1.93
2022-11-15T20:42:11.127Z,2.97
2022-11-15T20:44:39.600Z,2.20
2022-11-15T20:47:07.927Z,2.10
2022-11-15T20:49:35.919Z,2.30
2022-11-15T20:52:07.751Z,2.90
2022-11-15T20:54:39.714Z,2.13
2022-11-15T20:57:07.736Z,2.90
2022-11-15T20:59:35.833Z,2.77
2022-11-15T21:02:04.686Z,1.97
2022-11-15T21:04:33.218Z,2.40
2022-11-15T21:07:01.346Z,2.33
2022-11-15T21:09:46.940Z,2.10
2022-11-15T21:12:18.419Z,2.40
2022-11-15T21:14:49.266Z,2.53
2022-11-15T21:17:18.260Z,1.67
2022-11-15T21:19:47.878Z,2.20
2022-11-15T21:22:16.154Z,2.03
2022-11-15T21:24:44.540Z,2.60
2022-11-15T21:27:12.899Z,2.20
2022-11-15T21:29:48.217Z,2.33
2022-11-15T21:32:16.355Z,2.07
2022-11-15T21:34:44.351Z,2.00
2022-11-15T21:37:13.171Z,1.80
2022-11-15T21:39:48.618Z,2.50
2022-11-15T21:42:17.014Z,2.13
2022-11-15T21:44:48.439Z,2.17
2022-11-15T21:47:17.859Z,2.10
2022-11-15T21:49:45.834Z,1.63
2022-11-15T21:52:14.262Z,2.17
2022-11-15T21:54:44.794Z,1.70
2022-11-15T21:57:12.867Z,1.70
2022-11-15T22:00:01.218Z,1.60
2022-11-15T22:02:29.682Z,1.83
2022-11-15T22:04:57.717Z,1.70
2022-11-15T22:07:29.016Z,1.80
2022-11-15T22:09:58.813Z,2.00
2022-11-15T22:12:36.184Z,2.20
2022-11-15T22:15:04.930Z,2.13
2022-11-15T22:17:48.283Z,2.20
2022-11-15T22:20:42.817Z,2.00
2022-11-15T22:23:13.756Z,1.70
2022-11-15T22:25:45.256Z,1.80
2022-11-15T22:28:15.142Z,1.67
2022-11-15T22:30:49.658Z,1.57
2022-11-15T22:33:23.719Z,1.90
2022-11-15T22:35:53.612Z,1.80
2022-11-15T22:38:22.147Z,1.80
2022-11-15T22:40:53.970Z,1.80
2022-11-15T22:43:24.009Z,1.80
2022-11-15T22:45:56.997Z,2.10
2022-11-15T22:48:28.482Z,1.77
2022-11-15T22:51:00.408Z,1.80
2022-11-15T22:53:29.346Z,1.43
2022-11-15T22:56:02.705Z,1.60
2022-11-15T22:58:35.087Z,1.43
2022-11-15T23:01:06.559Z,1.70
2022-11-15T23:03:43.905Z,2.40
2022-11-15T23:06:12.452Z,1.80
2022-11-15T23:08:41.212Z,2.10
2022-11-15T23:11:32.570Z,1.63
2022-11-15T23:14:00.737Z,1.80
2022-11-15T23:16:34.886Z,2.00
2022-11-15T23:19:07.503Z,2.07
2022-11-15T23:21:56.463Z,1.93
2022-11-15T23:24:30.282Z,2.33
2022-11-15T23:27:04.492Z,2.60
2022-11-15T23:29:32.966Z,2.17
2022-11-15T23:32:21.113Z,1.87
2022-11-15T23:34:50.675Z,2.00
2022-11-15T23:37:19.337Z,2.00
2022-11-15T23:39:48.187Z,2.73
2022-11-15T23:42:28.174Z,1.67
2022-11-15T23:45:02.985Z,2.80
2022-11-15T23:47:31.860Z,2.23
2022-11-15T23:50:01.383Z,2.23
2022-11-15T23:52:30.517Z,2.60
2022-11-15T23:54:58.599Z,2.20
2022-11-15T23:57:29.569Z,2.00
